Time;durP1;ratioP1;P1;durP2;ratioP2;P2;SDS_P1;SDS_P2;PMS_P1;PMS_P2;Temp;Humidity;BMP_temperature;BMP_pressure;BME280_temperature;BME280_humidity;BME280_pressure;Samples;Min_cycle;Max_cycle;Signal;HPM_P1;HPM_P2
2022/06/07 00:00:05;;;;;;;4.85;2.10;;;;;;;-144.94;63.05;76433.34;4971798;28;20186;-84
2022/06/07 00:02:33;;;;;;;;;;;;;;;-144.94;63.29;76443.66;4958394;29;20042;-83
2022/06/07 00:04:58;;;;;;;6.43;2.92;;;;;;;-144.94;63.56;76445.69;4956797;28;20254;-85
2022/06/07 00:07:25;;;;;;;7.00;2.90;;;;;;;-144.94;63.38;76433.34;4957923;29;20040;-83
2022/06/07 00:09:51;;;;;;;6.90;3.70;;;;;;;-144.94;63.08;76431.28;4957679;29;20450;-83
2022/06/07 00:12:17;;;;;;;6.30;2.60;;;;;;;-144.94;63.31;76435.41;4957644;29;20031;-83
2022/06/07 00:14:45;;;;;;;5.75;2.45;;;;;;;-144.94;63.49;76435.41;4972625;28;20726;-84
2022/06/07 00:17:12;;;;;;;7.95;3.05;;;;;;;-144.94;63.90;76429.25;4957453;28;20085;-83
2022/06/07 00:19:38;;;;;;;12.40;4.00;;;;;;;-144.94;63.24;76423.06;4957848;28;20097;-83
2022/06/07 00:22:05;;;;;;;7.05;3.00;;;;;;;-144.94;62.92;76412.75;4957534;29;20034;-83
2022/06/07 00:24:30;;;;;;;7.57;3.28;;;;;;;-144.94;62.83;76408.66;4956141;29;20434;-82
2022/06/07 00:26:56;;;;;;;9.07;2.80;;;;;;;-144.94;63.01;76427.19;4957564;29;20033;-83
2022/06/07 00:29:23;;;;;;;;;;;;;;;-144.94;63.26;76425.13;4958246;29;20076;-83
2022/06/07 00:31:48;;;;;;;6.70;3.47;;;;;;;-144.94;62.99;76427.19;4957228;29;19941;-83
2022/06/07 00:34:14;;;;;;;7.35;3.25;;;;;;;-144.94;63.33;76433.34;4957362;29;20095;-84
2022/06/07 00:36:41;;;;;;;4.85;2.63;;;;;;;-144.94;63.42;76435.41;4957227;29;20068;-84
2022/06/07 00:39:07;;;;;;;8.52;3.33;;;;;;;-144.94;63.33;76433.34;4956040;29;20035;-83
2022/06/07 00:41:33;;;;;;;7.13;3.25;;;;;;;-144.94;63.13;76433.34;4957435;29;20118;-83
2022/06/07 00:44:17;;;;;;;6.97;3.47;;;;;;;-144.94;62.89;76412.75;4957193;29;20513;-83
2022/06/07 00:46:47;;;;;;;7.45;3.60;;;;;;;-144.94;62.57;76398.34;4972172;28;20096;-83
2022/06/07 00:49:15;;;;;;;6.47;3.10;;;;;;;-144.94;62.77;76414.81;4957462;29;20073;-83
2022/06/07 00:51:40;;;;;;;7.32;3.47;;;;;;;-144.94;62.61;76412.75;4957313;29;20042;-84
2022/06/07 00:54:06;;;;;;;5.72;3.20;;;;;;;-144.94;62.54;76414.81;4956749;29;20385;-84
2022/06/07 00:56:32;;;;;;;6.38;3.40;;;;;;;-144.94;62.43;76404.53;4955740;29;20042;-85
2022/06/07 00:59:00;;;;;;;;;;;;;;;-144.94;62.46;76406.59;4963368;28;20134;-84
2022/06/07 01:01:26;;;;;;;8.63;3.65;;;;;;;-144.94;61.96;76406.59;4976498;28;19914;-85
2022/06/07 01:03:52;;;;;;;7.80;3.63;;;;;;;-144.94;62.02;76394.25;4976555;28;20450;-85
2022/06/07 01:11:45;;;;;;;8.98;4.40;;;;;;;-144.94;61.98;76402.47;4975715;28;20050;-86
2022/06/07 01:14:10;;;;;;;8.50;3.38;;;;;;;-144.94;61.99;76398.34;4975588;28;20465;-85
2022/06/07 01:16:35;;;;;;;7.00;2.92;;;;;;;-144.94;62.22;76410.72;4975477;28;20478;-86
2022/06/07 01:19:01;;;;;;;6.63;3.27;;;;;;;-144.94;62.37;76416.88;4975366;28;20033;-85
2022/06/07 01:21:29;;;;;;;;;;;;;;;-144.94;61.91;76410.72;4975803;28;20040;-85
2022/06/07 01:23:54;;;;;;;7.70;2.97;;;;;;;-144.94;62.39;76423.06;4975521;28;19964;-85
2022/06/07 01:26:20;;;;;;;8.23;3.78;;;;;;;-144.94;62.27;76416.88;4975307;28;20038;-85
2022/06/07 01:28:46;;;;;;;;;;;;;;;-144.94;62.35;76421.00;4975914;28;20043;-85
2022/06/07 01:31:11;;;;;;;6.80;3.03;;;;;;;-144.94;62.53;76429.25;4975437;28;20348;-85
2022/06/07 01:33:37;;;;;;;6.63;2.90;;;;;;;-144.94;62.26;76423.06;4975562;28;20035;-85
2022/06/07 01:36:10;;;;;;;5.63;3.10;;;;;;;-144.94;62.25;76423.06;4974944;28;20063;-84
2022/06/07 01:38:37;;;;;;;7.28;2.67;;;;;;;-144.94;61.92;76414.81;4975078;28;20034;-84
2022/06/07 01:43:48;;;;;;;7.93;3.55;;;;;;;-144.94;61.78;76406.59;4975113;28;20042;-84
2022/06/07 01:46:13;;;;;;;6.68;3.05;;;;;;;-144.94;62.09;76412.75;4975184;28;20381;-85
2022/06/07 01:48:39;;;;;;;5.60;2.63;;;;;;;-144.94;61.98;76414.81;4975128;28;20134;-83
2022/06/07 01:51:06;;;;;;;6.13;3.00;;;;;;;-144.94;61.82;76398.34;4975082;28;20030;-84
2022/06/07 01:53:33;;;;;;;7.47;2.55;;;;;;;-144.94;61.96;76412.75;4974803;28;20438;-83
2022/06/07 01:56:11;;;;;;;5.18;2.72;;;;;;;-144.94;61.82;76400.41;4974566;28;20037;-84
2022/06/07 01:58:38;;;;;;;5.25;2.53;;;;;;;-144.94;62.00;76404.53;4975045;28;20062;-83
2022/06/07 02:01:04;;;;;;;5.35;2.38;;;;;;;-144.94;62.05;76406.59;4958082;28;20385;-83
2022/06/07 02:03:30;;;;;;;;;;;;;;;-144.94;62.40;76412.75;4975540;28;20030;-83
2022/06/07 02:06:04;;;;;;;5.30;2.70;;;;;;;-144.94;62.53;76414.81;4975034;28;19913;-84
2022/06/07 02:08:31;;;;;;;6.00;2.58;;;;;;;-144.94;62.28;76412.75;4975059;28;20085;-85
2022/06/07 02:11:05;;;;;;;6.72;2.83;;;;;;;-144.94;62.28;76400.41;4975987;28;20062;-85
2022/06/07 02:13:31;;;;;;;5.43;2.67;;;;;;;-144.94;62.18;76402.47;4974553;28;20073;-84
2022/06/07 02:15:56;;;;;;;6.40;2.78;;;;;;;-144.94;62.48;76410.72;4973202;28;20070;-84
2022/06/07 02:18:22;;;;;;;;;;;;;;;-144.94;62.29;76398.34;4974881;28;20117;-84
2022/06/07 02:20:47;;;;;;;7.20;2.47;;;;;;;-144.94;62.47;76414.81;4973784;28;19914;-85
2022/06/07 02:23:12;;;;;;;4.88;2.22;;;;;;;-144.94;62.39;76410.72;4973672;28;20290;-85
2022/06/07 02:25:43;;;;;;;8.45;3.00;;;;;;;-144.94;62.42;76414.81;4974613;28;20386;-84
2022/06/07 02:28:13;;;;;;;5.93;2.45;;;;;;;-144.94;62.32;76408.66;4974389;28;20038;-84
2022/06/07 02:30:41;;;;;;;4.53;2.00;;;;;;;-144.94;62.10;76412.75;4974530;28;20426;-86
2022/06/07 02:33:08;;;;;;;5.60;2.42;;;;;;;-144.94;62.36;76423.06;4974459;28;20489;-85
2022/06/07 02:35:33;;;;;;;6.07;2.60;;;;;;;-144.94;62.14;76416.88;4974309;28;20026;-84
2022/06/07 02:37:59;;;;;;;4.70;2.25;;;;;;;-144.94;62.19;76433.34;4974994;28;20031;-85
2022/06/07 02:40:24;;;;;;;4.53;2.42;;;;;;;-144.94;62.02;76423.06;4973239;28;20042;-85
2022/06/07 02:42:50;;;;;;;5.57;2.20;;;;;;;-144.94;61.91;76416.88;4974740;28;20501;-87
2022/06/07 02:45:15;;;;;;;4.30;2.20;;;;;;;-144.94;61.67;76414.81;4974764;28;20042;-86
2022/06/07 02:47:40;;;;;;;;;;;;;;;-144.94;61.51;76412.75;4973756;28;20038;-86
2022/06/07 02:50:06;;;;;;;4.00;2.10;;;;;;;-144.94;61.64;76416.88;4974488;28;19910;-86
2022/06/07 02:52:31;;;;;;;5.32;2.10;;;;;;;-144.94;61.50;76421.00;4973547;28;20374;-86
2022/06/07 02:54:58;;;;;;;5.70;1.80;;;;;;;-144.94;61.34;76418.94;4957264;28;20043;-86
2022/06/07 02:57:25;;;;;;;3.95;2.03;;;;;;;-144.94;61.23;76421.00;4974376;28;20035;-86
2022/06/07 02:59:52;;;;;;;4.68;2.30;;;;;;;-144.94;61.60;76433.34;4974184;28;20055;-86
2022/06/07 03:02:18;;;;;;;6.30;2.40;;;;;;;-144.94;61.84;76437.47;4975001;28;20086;-85
2022/06/07 03:04:43;;;;;;;4.17;1.93;;;;;;;-144.94;61.53;76435.41;4974295;28;20035;-83
2022/06/07 03:07:08;;;;;;;;;;;;;;;-144.94;61.27;76435.41;4974328;28;20035;-84
2022/06/07 03:09:34;;;;;;;4.18;2.00;;;;;;;-144.94;61.22;76437.47;4974121;28;19920;-83
2022/06/07 03:11:59;;;;;;;3.83;1.85;;;;;;;-144.94;60.92;76439.53;4974024;28;20094;-83
2022/06/07 03:14:25;;;;;;;4.18;1.95;;;;;;;-144.94;60.71;76437.47;4974240;28;20034;-79
2022/06/07 03:16:50;;;;;;;4.25;2.03;;;;;;;-144.94;60.55;76433.34;4974088;28;20031;-82
2022/06/07 03:19:15;;;;;;;3.80;1.83;;;;;;;-144.94;60.27;76435.41;4973803;28;20038;-83
2022/06/07 03:21:41;;;;;;;8.15;2.22;;;;;;;-144.94;60.20;76435.41;4973896;28;20393;-82
2022/06/07 03:24:07;;;;;;;3.67;1.73;;;;;;;-144.94;60.36;76437.47;4972562;28;20046;-83
2022/06/07 03:26:33;;;;;;;4.50;1.92;;;;;;;-144.94;60.16;76437.47;4973844;28;20070;-79
2022/06/07 03:28:58;;;;;;;5.80;1.40;;;;;;;-144.94;59.76;76435.41;4973921;28;20065;-81
2022/06/07 03:31:24;;;;;;;4.75;1.75;;;;;;;-144.94;59.86;76437.47;4974304;28;20046;-84
2022/06/07 03:33:50;;;;;;;4.55;1.48;;;;;;;-144.94;59.93;76445.69;4976788;28;20059;-85
2022/06/07 03:36:18;;;;;;;;;;;;;;;-144.94;59.73;76443.66;4978041;28;20038;-83
2022/06/07 03:38:44;;;;;;;4.68;2.03;;;;;;;-144.94;59.90;76439.53;4977589;28;19917;-80
2022/06/07 03:41:15;;;;;;;3.67;1.57;;;;;;;-144.94;60.08;76460.13;4977544;28;20031;-82
2022/06/07 03:43:40;;;;;;;3.65;1.80;;;;;;;-144.94;59.39;76441.59;4977391;28;20357;-82
2022/06/07 03:46:16;;;;;;;3.33;1.70;;;;;;;-144.94;59.61;76458.06;4977103;28;20455;-83
2022/06/07 03:48:42;;;;;;;3.65;1.65;;;;;;;-144.94;59.30;76447.75;4977405;28;20038;-80
2022/06/07 03:51:09;;;;;;;4.93;1.73;;;;;;;-144.94;59.11;76449.81;4975974;28;20035;-83
2022/06/07 03:53:35;;;;;;;4.32;1.52;;;;;;;-144.94;59.37;76460.13;4977067;28;20109;-84
2022/06/07 03:56:01;;;;;;;5.75;1.63;;;;;;;-144.94;59.33;76447.75;4977182;28;20034;-82
2022/06/07 03:58:27;;;;;;;;;;;;;;;-144.94;59.17;76456.00;4977526;28;20038;-83
2022/06/07 04:00:56;;;;;;;3.72;1.60;;;;;;;-144.94;59.13;76447.75;4977163;28;19914;-83
2022/06/07 04:03:22;;;;;;;4.50;1.58;;;;;;;-144.94;59.19;76460.13;4977308;28;20031;-84
2022/06/07 04:05:48;;;;;;;3.47;1.52;;;;;;;-144.94;59.05;76460.13;4977130;28;20480;-85
2022/06/07 04:08:14;;;;;;;3.15;1.30;;;;;;;-144.94;58.76;76445.69;4977141;28;20042;-83
2022/06/07 04:10:46;;;;;;;3.42;1.40;;;;;;;-144.94;58.69;76449.81;4976949;28;20035;-83
2022/06/07 04:13:12;;;;;;;3.20;1.52;;;;;;;-144.94;58.93;76464.22;4975766;28;20039;-83
2022/06/07 04:15:38;;;;;;;3.25;1.40;;;;;;;-144.94;58.98;76453.94;4977062;28;20385;-85
2022/06/07 04:18:03;;;;;;;3.88;1.40;;;;;;;-144.94;58.50;76441.59;4959490;28;20038;-82
2022/06/07 04:20:28;;;;;;;5.95;1.83;;;;;;;-144.94;58.14;76429.25;4976618;28;20043;-83
2022/06/07 04:22:54;;;;;;;4.80;1.43;;;;;;;-144.94;57.71;76425.13;4976818;28;20378;-83
2022/06/07 04:25:19;;;;;;;;;;;;;;;-144.94;57.80;76427.19;4976898;28;20026;-84
2022/06/07 04:27:45;;;;;;;5.50;1.50;;;;;;;-144.94;57.52;76421.00;4976811;28;19910;-84
2022/06/07 04:30:11;;;;;;;4.22;1.50;;;;;;;-144.94;57.68;76410.72;4976643;28;20278;-82
2022/06/07 04:32:36;;;;;;;;;;;;;;;-144.94;57.59;76418.94;4977424;28;20037;-82
2022/06/07 04:35:01;;;;;;;2.58;1.00;;;;;;;-144.94;57.60;76423.06;4976640;28;19918;-84
2022/06/07 04:37:27;;;;;;;3.47;1.30;;;;;;;-144.94;57.66;76418.94;4959321;28;20126;-81
2022/06/07 04:39:52;;;;;;;3.95;1.42;;;;;;;-144.94;57.52;76418.94;4976533;28;20034;-84
2022/06/07 04:42:18;;;;;;;3.40;1.63;;;;;;;-144.94;57.44;76412.75;4976447;28;20062;-85
2022/06/07 04:44:43;;;;;;;;;;;;;;;-144.94;57.36;76410.72;4976207;28;20070;-83
2022/06/07 04:47:08;;;;;;;4.43;1.30;;;;;;;-144.94;57.48;76410.72;4976533;28;19917;-86
2022/06/07 04:49:33;;;;;;;2.90;1.37;;;;;;;-144.94;57.55;76410.72;4976377;28;20277;-83
2022/06/07 04:51:59;;;;;;;3.40;1.40;;;;;;;-144.94;57.43;76400.41;4976718;28;20254;-82
2022/06/07 04:54:24;;;;;;;5.10;1.73;;;;;;;-144.94;57.43;76400.41;4975935;28;20298;-87
2022/06/07 04:56:49;;;;;;;3.72;1.30;;;;;;;-144.94;57.11;76392.19;4976266;28;20035;-83
2022/06/07 04:59:15;;;;;;;;;;;;;;;-144.94;56.78;76386.00;4975102;28;20047;-84
2022/06/07 05:01:42;;;;;;;4.87;1.30;;;;;;;-144.94;56.64;76377.78;4975924;28;19962;-84
2022/06/07 05:04:09;;;;;;;4.18;1.15;;;;;;;-144.94;56.60;76377.78;4976449;28;20270;-85
2022/06/07 05:06:41;;;;;;;3.05;1.20;;;;;;;-144.94;56.71;76379.81;4975995;28;20027;-87
2022/06/07 05:09:17;;;;;;;2.90;1.30;;;;;;;-144.94;56.23;76361.31;4976731;28;20113;-84
2022/06/07 05:11:46;;;;;;;3.28;1.20;;;;;;;-144.94;56.20;76367.47;4976205;28;20465;-87
2022/06/07 05:14:11;;;;;;;3.63;1.10;;;;;;;-144.94;56.60;76369.53;4975682;28;20089;-84
2022/06/07 05:16:39;;;;;;;9.20;3.22;;;;;;;-144.94;56.18;76357.19;4974600;28;20038;-84
2022/06/07 05:19:05;;;;;;;4.55;1.30;;;;;;;-144.94;55.96;76357.19;4958566;28;20118;-84
2022/06/07 05:21:30;;;;;;;3.00;1.30;;;;;;;-144.94;55.79;76353.06;4958657;28;20419;-87
2022/06/07 05:23:55;;;;;;;3.13;1.10;;;;;;;-144.94;55.81;76355.13;4977332;28;20110;-90
2022/06/07 05:26:38;;;;;;;3.60;1.33;;;;;;;-144.94;55.53;76348.94;4981145;28;20390;-89
2022/06/07 05:29:06;;;;;;;2.50;0.95;;;;;;;-144.94;55.42;76340.72;4981712;28;20497;-90
2022/06/07 05:31:32;;;;;;;3.42;1.00;;;;;;;-144.94;55.10;76330.41;4981230;28;20054;-89
2022/06/07 05:33:57;;;;;;;;;;;;;;;-144.94;55.00;76318.06;4981722;28;20089;-88
2022/06/07 05:36:23;;;;;;;2.67;1.20;;;;;;;-144.94;54.72;76318.06;4982801;28;20000;-92
2022/06/07 05:38:49;;;;;;;3.95;1.30;;;;;;;-144.94;54.23;76299.53;4964168;28;20034;-89
2022/06/07 05:41:19;;;;;;;2.78;1.20;;;;;;;-144.94;54.21;76301.59;4986120;28;20035;-86
2022/06/07 05:43:46;;;;;;;3.25;1.23;;;;;;;-144.94;53.85;76307.78;4982765;28;20043;-89
2022/06/07 05:46:12;;;;;;;3.15;1.10;;;;;;;-144.94;53.98;76297.47;4983518;28;20027;-89
2022/06/07 05:48:37;;;;;;;6.15;1.65;;;;;;;-144.94;53.26;76285.13;4976465;28;20141;-88
2022/06/07 05:51:03;;;;;;;;;;;;;;;-144.94;53.54;76283.06;4976785;28;20034;-88
2022/06/07 05:53:28;;;;;;;4.68;1.10;;;;;;;-144.94;53.14;76283.06;4974678;28;20422;-79
2022/06/07 05:55:54;;;;;;;2.40;0.90;;;;;;;-144.94;53.08;76272.78;4974634;28;20386;-79
2022/06/07 05:58:20;;;;;;;3.08;1.00;;;;;;;-144.94;52.65;76260.44;4974740;28;20066;-82
2022/06/07 06:00:46;;;;;;;;;;;;;;;-144.94;52.53;76258.38;4975582;28;20042;-80
2022/06/07 06:03:12;;;;;;;2.53;1.10;;;;;;;-144.94;52.59;76270.72;4973266;28;19918;-79
2022/06/07 06:05:46;;;;;;;2.60;1.30;;;;;;;-144.94;52.26;76250.13;4974132;28;20258;-79
2022/06/07 06:11:23;;;;;;;2.58;1.00;;;;;;;-144.94;51.91;76227.50;4974616;28;20046;-86
2022/06/07 06:13:49;;;;;;;3.05;1.13;;;;;;;-144.94;51.79;76229.53;4971033;28;20221;-80
2022/06/07 06:16:20;;;;;;;3.42;1.33;;;;;;;-144.94;51.73;76225.44;4974423;28;20070;-80
2022/06/07 06:18:50;;;;;;;3.58;1.33;;;;;;;-144.94;52.00;76233.66;4974387;28;20101;-79
2022/06/07 06:21:17;;;;;;;3.03;0.90;;;;;;;-144.94;51.43;76219.25;4974401;28;20031;-80
2022/06/07 06:23:43;;;;;;;2.72;1.00;;;;;;;-144.94;51.52;76204.84;4974399;28;20122;-80
2022/06/07 06:26:13;;;;;;;2.63;1.00;;;;;;;-144.94;51.26;76194.56;4974810;28;20047;-78
2022/06/07 06:28:39;;;;;;;4.43;1.35;;;;;;;-144.94;50.69;76151.31;4974496;28;20027;-80
2022/06/07 06:31:07;;;;;;;4.30;1.65;;;;;;;-144.94;48.69;76062.81;4973044;28;20029;-79
2022/06/07 06:33:38;;;;;;;3.80;1.10;;;;;;;-144.94;47.48;75945.47;4974430;28;20089;-80
2022/06/07 06:36:06;;;;;;;3.40;1.13;;;;;;;-144.94;45.58;75871.38;4974245;28;20465;-79
2022/06/07 06:38:32;;;;;;;3.08;1.15;;;;;;;-144.94;44.25;75795.22;4974550;28;20058;-79
2022/06/07 06:40:59;;;;;;;;;;;;;;;-144.94;43.35;75756.09;4974985;28;20041;-79
2022/06/07 06:43:25;;;;;;;3.72;1.30;;;;;;;-144.94;43.66;75754.03;4974578;28;19950;-79
2022/06/07 06:45:50;;;;;;;3.97;1.10;;;;;;;-144.94;43.26;75731.41;4974406;28;20081;-79
2022/06/07 06:48:16;;;;;;;2.60;1.08;;;;;;;-144.94;42.56;75675.81;4974639;28;20042;-79
2022/06/07 06:50:42;;;;;;;6.53;1.70;;;;;;;-144.94;43.10;75710.81;4975083;28;20041;-79
2022/06/07 06:53:07;;;;;;;3.90;1.25;;;;;;;-144.94;41.88;75628.47;4974303;28;20031;-79
2022/06/07 06:55:33;;;;;;;5.40;1.20;;;;;;;-144.94;41.22;75570.84;4956516;28;20074;-82
2022/06/07 06:57:59;;;;;;;2.08;0.95;;;;;;;-144.94;40.11;75531.75;4974241;28;20031;-80
2022/06/07 07:00:26;;;;;;;4.60;1.40;;;;;;;-144.94;40.69;75533.81;4974081;28;20051;-80
2022/06/07 07:02:53;;;;;;;3.67;1.30;;;;;;;-144.94;40.15;75476.19;4974275;28;20433;-81
2022/06/07 07:05:19;;;;;;;3.33;1.20;;;;;;;-144.94;41.08;75542.03;4974430;28;20042;-80
2022/06/07 07:07:46;;;;;;;5.82;2.05;;;;;;;-144.94;41.08;75595.56;4973972;28;20035;-79
2022/06/07 07:10:12;;;;;;;11.48;1.65;;;;;;;-144.94;41.07;75550.28;4977747;28;20469;-80
2022/06/07 07:12:38;;;;;;;2.80;1.10;;;;;;;-144.94;42.50;75665.53;4978416;28;20046;-80
2022/06/07 07:15:07;;;;;;;3.20;1.45;;;;;;;-144.94;42.55;75682.00;4977720;28;20049;-79
2022/06/07 07:17:33;;;;;;;3.10;1.30;;;;;;;-144.94;42.52;75671.72;4977995;28;20031;-79
2022/06/07 07:19:58;;;;;;;3.15;1.40;;;;;;;-144.94;44.06;75741.69;4977953;28;20389;-81
2022/06/07 07:22:24;;;;;;;2.63;1.15;;;;;;;-144.94;43.54;75723.16;4977909;28;20517;-79
2022/06/07 07:24:50;;;;;;;4.03;1.30;;;;;;;-144.94;42.77;75653.19;4977372;28;20049;-80
2022/06/07 07:27:17;;;;;;;2.78;1.13;;;;;;;-144.94;43.10;75696.41;4960044;28;20122;-80
2022/06/07 07:29:43;;;;;;;2.75;1.05;;;;;;;-144.94;43.05;75655.25;4978049;28;20036;-81
2022/06/07 07:32:08;;;;;;;3.55;1.20;;;;;;;-144.94;43.94;75754.03;4978071;28;20027;-81
2022/06/07 07:34:34;;;;;;;5.35;1.80;;;;;;;-144.94;44.39;75747.88;4979344;28;20030;-82
2022/06/07 07:36:59;;;;;;;;;;;;;;;-144.94;44.54;75768.44;4980936;28;20065;-83
2022/06/07 07:39:25;;;;;;;4.53;1.27;;;;;;;-144.94;45.56;75813.72;4979915;28;19941;-82
2022/06/07 07:41:53;;;;;;;3.22;1.23;;;;;;;-144.94;45.41;75799.31;4980993;28;20099;-82
2022/06/07 07:44:20;;;;;;;4.05;1.20;;;;;;;-144.94;45.72;75803.44;4980163;28;20150;-82
2022/06/07 07:46:47;;;;;;;3.03;1.38;;;;;;;-144.94;45.80;75824.03;4980040;28;20034;-81
2022/06/07 07:49:17;;;;;;;2.72;1.10;;;;;;;-144.94;45.72;75799.31;4979169;28;20050;-80
2022/06/07 07:51:45;;;;;;;5.03;1.20;;;;;;;-144.94;46.04;75791.09;4982517;28;20056;-82
2022/06/07 07:54:13;;;;;;;2.58;1.10;;;;;;;-144.94;45.08;75764.34;4983032;28;20034;-82
2022/06/07 07:56:38;;;;;;;2.63;1.25;;;;;;;-144.94;44.83;75727.28;4981816;28;20049;-82
2022/06/07 07:59:05;;;;;;;2.70;1.00;;;;;;;-144.94;44.89;75727.28;4981741;28;20117;-83
2022/06/07 08:01:31;;;;;;;3.20;1.00;;;;;;;-144.94;44.35;75721.09;4980211;28;20450;-81
2022/06/07 08:03:59;;;;;;;2.58;1.38;;;;;;;-144.94;44.28;75756.09;4978797;28;20035;-82
2022/06/07 08:06:27;;;;;;;4.03;1.65;;;;;;;-144.94;45.17;75784.91;4979922;28;20034;-81
2022/06/07 08:08:54;;;;;;;3.20;1.20;;;;;;;-144.94;45.24;75784.91;4979290;28;20055;-83
2022/06/07 08:11:23;;;;;;;4.53;1.20;;;;;;;-144.94;45.26;75776.69;4978920;28;20057;-81
2022/06/07 08:13:49;;;;;;;2.50;1.20;;;;;;;-144.94;44.98;75780.81;4979510;28;20023;-84
2022/06/07 08:16:14;;;;;;;1.95;0.88;;;;;;;-144.94;43.84;75791.09;4977901;28;20054;-82
2022/06/07 08:18:41;;;;;;;2.08;0.75;;;;;;;-144.94;43.39;75784.91;4977892;28;20042;-82
2022/06/07 08:21:10;;;;;;;2.85;0.90;;;;;;;-144.94;42.81;75801.38;4960725;28;20034;-85
2022/06/07 08:23:37;;;;;;;2.80;1.25;;;;;;;-144.94;43.00;75799.31;4978198;28;20142;-83
2022/06/07 08:26:04;;;;;;;2.28;0.75;;;;;;;-144.94;43.03;75764.34;4977056;28;20026;-81
2022/06/07 08:28:30;;;;;;;1.90;0.80;;;;;;;-144.94;42.87;75751.97;4977926;28;20042;-82
2022/06/07 08:30:55;;;;;;;2.97;1.00;;;;;;;-144.94;42.28;75725.22;4977814;28;20039;-82
2022/06/07 08:38:55;;;;;;;2.65;1.00;;;;;;;-144.94;41.77;75731.41;4977323;28;20061;-79
2022/06/07 08:41:34;;;;;;;1.88;0.80;;;;;;;-144.94;41.80;75737.56;4976675;28;20039;-80
2022/06/07 08:44:06;;;;;;;2.47;1.10;;;;;;;-144.94;41.90;75735.53;4976712;28;20074;-81
2022/06/07 08:46:36;;;;;;;1.38;0.60;;;;;;;-144.94;42.33;75754.03;4977242;28;20037;-80
2022/06/07 08:49:02;;;;;;;3.80;1.20;;;;;;;-144.94;41.96;75751.97;4976977;28;20041;-80
2022/06/07 08:51:34;;;;;;;2.80;1.02;;;;;;;-144.94;41.89;75774.63;4976797;28;20067;-80
2022/06/07 08:54:02;;;;;;;1.95;0.80;;;;;;;-144.94;41.95;75778.75;4976568;28;20031;-80
2022/06/07 08:56:32;;;;;;;2.53;0.90;;;;;;;-144.94;41.86;75797.25;4976829;28;20454;-81
2022/06/07 08:59:05;;;;;;;2.13;0.95;;;;;;;-144.94;42.03;75784.91;4976402;28;20093;-81
2022/06/07 09:01:47;;;;;;;2.50;1.33;;;;;;;-144.94;42.53;75770.50;4976620;28;20035;-80
2022/06/07 09:04:27;;;;;;;2.17;0.80;;;;;;;-144.94;42.51;75747.88;4974689;28;20031;-82
2022/06/07 09:06:56;;;;;;;4.30;1.00;;;;;;;-144.94;42.76;75735.53;4976574;28;20038;-83
2022/06/07 09:12:09;;;;;;;2.08;0.85;;;;;;;-144.94;42.29;75702.59;4976615;28;20077;-80
2022/06/07 09:12:18;;;;;;;2.40;0.80;;;;;;;-144.94;41.80;75686.13;4976983;28;20038;-82
2022/06/07 09:14:47;;;;;;;2.85;1.05;;;;;;;-144.94;40.58;75700.53;4976818;28;20454;-83
2022/06/07 09:17:27;;;;;;;1.92;0.90;;;;;;;-144.94;40.89;75692.28;4976531;28;20105;-81
2022/06/07 09:19:54;;;;;;;2.25;1.00;;;;;;;-144.94;41.32;75700.53;4976961;28;20031;-83
2022/06/07 09:22:29;;;;;;;3.33;1.27;;;;;;;-144.94;40.81;75706.69;4976811;28;20026;-82
2022/06/07 09:25:00;;;;;;;4.63;1.33;;;;;;;-144.94;41.62;75723.16;4976242;28;20039;-84
2022/06/07 09:27:30;;;;;;;2.13;0.80;;;;;;;-144.94;41.67;75698.47;4976267;28;20098;-82
2022/06/07 09:30:19;;;;;;;1.92;0.80;;;;;;;-144.94;42.61;75731.41;4976283;28;20037;-81
2022/06/07 09:32:45;;;;;;;5.05;1.15;;;;;;;-144.94;42.62;75733.47;4975924;28;20113;-81
2022/06/07 09:35:33;;;;;;;2.28;0.80;;;;;;;-144.94;43.08;75717.00;4975702;28;20110;-81
2022/06/07 09:38:06;;;;;;;2.40;0.80;;;;;;;-144.94;43.31;75723.16;4976196;28;20089;-83
2022/06/07 09:40:41;;;;;;;2.80;1.35;;;;;;;-144.94;43.80;75737.56;4974647;28;20037;-81
2022/06/07 09:43:06;;;;;;;2.65;0.90;;;;;;;-144.94;43.70;75735.53;4974698;28;20121;-81
2022/06/07 09:45:46;;;;;;;4.15;1.05;;;;;;;-144.94;44.11;75749.94;4975125;28;20058;-82
2022/06/07 09:48:45;;;;;;;2.60;1.00;;;;;;;-144.94;43.21;75698.47;4976041;28;20045;-82
2022/06/07 09:51:18;;;;;;;3.25;1.10;;;;;;;-144.94;42.89;75665.53;4974897;28;20039;-81
2022/06/07 09:53:47;;;;;;;2.65;0.90;;;;;;;-144.94;43.67;75717.00;4976990;28;20037;-85
2022/06/07 09:56:39;;;;;;;1.90;0.70;;;;;;;-144.94;43.88;75727.28;4976797;28;20035;-84
2022/06/07 09:59:33;;;;;;;3.08;1.00;;;;;;;-144.94;43.90;75723.16;4959092;28;20047;-82
2022/06/07 10:02:38;;;;;;;1.80;0.98;;;;;;;-144.94;44.20;75739.63;4975866;28;20034;-82
2022/06/07 10:05:22;;;;;;;3.90;1.00;;;;;;;-144.94;44.18;75721.09;4974827;28;20556;-81
2022/06/07 10:07:58;;;;;;;1.80;0.88;;;;;;;-144.94;44.32;75725.22;4976909;28;20027;-82
2022/06/07 10:10:42;;;;;;;2.67;1.02;;;;;;;-144.94;44.26;75688.19;4975992;28;20089;-83
2022/06/07 10:13:32;;;;;;;2.47;0.95;;;;;;;-144.94;43.66;75655.25;4975742;28;20062;-81
2022/06/07 10:16:13;;;;;;;2.33;0.93;;;;;;;-144.94;43.59;75663.47;4974857;28;20086;-82
2022/06/07 10:18:53;;;;;;;2.80;1.27;;;;;;;-144.94;43.94;75684.06;4975850;28;20029;-81
2022/06/07 10:21:31;;;;;;;3.10;1.00;;;;;;;-144.94;44.11;75663.47;4976315;28;20107;-83
2022/06/07 10:24:17;;;;;;;2.50;0.90;;;;;;;-144.94;44.14;75673.78;4977331;28;20073;-83
2022/06/07 10:26:50;;;;;;;1.88;0.80;;;;;;;-144.94;43.83;75636.72;4985016;28;20034;-82
2022/06/07 10:29:38;;;;;;;3.33;1.20;;;;;;;-144.94;43.67;75640.84;4993798;28;20041;-81
2022/06/07 10:32:12;;;;;;;2.35;0.90;;;;;;;-144.94;43.41;75607.91;4993359;28;20059;-82
2022/06/07 10:35:00;;;;;;;3.83;1.08;;;;;;;-144.94;42.84;75583.19;4981614;28;20026;-87
2022/06/07 10:37:38;;;;;;;2.20;0.98;;;;;;;-144.94;42.97;75568.78;4980175;28;20094;-85
2022/06/07 10:40:17;;;;;;;2.00;0.90;;;;;;;-144.94;42.48;75539.97;4979093;28;20084;-86
2022/06/07 10:42:51;;;;;;;1.83;0.75;;;;;;;-144.94;42.04;75513.22;4982598;28;20031;-84
2022/06/07 10:45:25;;;;;;;3.38;1.20;;;;;;;-144.94;41.50;75488.53;4986780;28;20039;-88
2022/06/07 10:47:54;;;;;;;1.27;0.75;;;;;;;-144.94;42.05;75542.03;4985199;28;20039;-89
2022/06/07 10:50:25;;;;;;;1.83;0.70;;;;;;;-144.94;41.67;75519.41;4984662;28;20015;-89
2022/06/07 10:53:00;;;;;;;2.83;0.77;;;;;;;-144.94;41.49;75513.22;4989307;28;20030;-83
2022/06/07 10:55:38;;;;;;;2.33;0.80;;;;;;;-144.94;41.17;75513.22;4987422;28;20018;-86
2022/06/07 10:58:30;;;;;;;3.25;1.10;;;;;;;-144.94;41.20;75533.81;4985460;28;20041;-88
2022/06/07 11:01:15;;;;;;;3.13;1.05;;;;;;;-144.94;40.93;75511.16;4985882;28;20039;-86
2022/06/07 11:03:59;;;;;;;3.13;0.70;;;;;;;-144.94;41.20;75496.75;4985476;28;20039;-87
2022/06/07 11:09:50;;;;;;;2.40;0.90;;;;;;;-144.94;41.49;75496.75;4984077;28;20042;-85
2022/06/07 11:12:23;;;;;;;2.35;0.90;;;;;;;-144.94;41.68;75511.16;4982823;28;20027;-85
2022/06/07 11:15:12;;;;;;;3.50;1.05;;;;;;;-144.94;42.04;75521.47;4987393;28;20051;-88
2022/06/07 11:17:48;;;;;;;3.05;0.88;;;;;;;-144.94;41.62;75496.75;4995594;28;20169;-84
2022/06/07 11:20:16;;;;;;;3.13;0.90;;;;;;;-144.94;42.06;75525.56;4989561;28;20030;-85
2022/06/07 11:22:54;;;;;;;3.22;1.05;;;;;;;-144.94;41.50;75498.81;4989999;28;20031;-83
2022/06/07 11:25:36;;;;;;;3.00;1.23;;;;;;;-144.94;41.53;75484.41;4990322;28;20039;-85
2022/06/07 11:28:27;;;;;;;4.82;1.88;;;;;;;-144.94;41.41;75494.69;4990732;28;20035;-85
2022/06/07 11:30:58;;;;;;;4.35;1.90;;;;;;;-144.94;41.85;75502.94;4980139;28;20466;-86
2022/06/07 11:33:57;;;;;;;3.47;1.00;;;;;;;-144.94;42.09;75523.50;4969065;28;20034;-82
2022/06/07 11:36:30;;;;;;;2.45;0.80;;;;;;;-144.94;42.40;75525.56;4984256;28;20086;-85
2022/06/07 11:38:56;;;;;;;2.40;1.00;;;;;;;-144.94;42.07;75484.41;4980389;28;20087;-85
2022/06/07 11:41:36;;;;;;;1.90;0.90;;;;;;;-144.94;42.04;75457.66;4979836;28;20468;-83
2022/06/07 11:44:12;;;;;;;3.47;0.90;;;;;;;-144.94;41.30;75412.38;4978169;28;20469;-84
2022/06/07 11:46:39;;;;;;;3.30;1.33;;;;;;;-144.94;41.30;75408.25;4978356;28;20046;-81
2022/06/07 11:49:20;;;;;;;2.30;1.00;;;;;;;-144.94;41.97;75435.00;4975975;28;20035;-81
2022/06/07 11:51:57;;;;;;;2.42;0.80;;;;;;;-144.94;40.84;75383.56;4977675;28;20027;-81